Haysville, KS

8:03 PM CST on February 08, 2016 (GMT -0600)
North Haysville | | Change Station
CLOSE
Current Station
Personal Weather Station
Location: Haysville, KS
Elevation: 1266 ft
Nearby Weather Stations

Elev 1266 ft 37.57 °N, 97.34 °W | Updated 10 minutes ago

Clear
Clear
34.7 °F
Feels Like 29 °F
N
6.8
Wind Variable Wind from WNW

Today
High -- | Low -- °F
--% Chance of Precip.
Yesterday
High -- | Low -- °F
Precip. -- in
Pressure 30.24 in
Visibility 10.0 miles
Clouds Clear
Windchill 29 °F
Dew Point 19 °F
Humidity 52%
Rainfall 0.02 in
Snow Depth Not available.
7:26 AM 6:00 PM
New Moon, 0% visible
METAR KIAB 090158Z AUTO 30012G20KT 10SM CLR 03/M09 A3020 RMK AO2 SLP240 T00251094
Pressure 30.24 in
Visibility 10.0 miles
Clouds Clear
Windchill 29 °F
Dew Point 19 °F
Humidity 52%
Rainfall 0.02 in
Snow Depth Not available.
7:26 AM 6:00 PM
New Moon, 0% visible
METAR KIAB 090158Z AUTO 30012G20KT 10SM CLR 03/M09 A3020 RMK AO2 SLP240 T00251094

10-Day Weather Forecast

Almanac

Astronomy

Feb. 08, 2016 Rise Set
Actual Time
Civil Twilight
Nautical Twilight
Astronomical Twilight
Moon
Length of Visible Light
Length of Day
Tomorrow will be .
, % of the Moon is Illuminated

Today's Extremes

State Highs State Lows

Community

WunderPhotos

Upload Photos

1,891,527 photos uploaded!

WunderBlog® & News

Nearby

Air Quality

  Air Quality AQ Index Pollutant
Not available.

Snow Depth

Station Depth Elevation

Earthquake Activity

City Distance Mag. Time & Date
Minimum magnitude displayed is 2.5.

Coastal Water Temperatures

Place Temperature

Stations

Nearby Weather Stations

Station Location Temp. Windchill Dew Point Humidity Wind Precip. Elev Updated Type
                   

Watches & Warnings

There are currently no watches in effect.